Time;durP1;ratioP1;P1;durP2;ratioP2;P2;SDS_P1;SDS_P2;PMS_P1;PMS_P2;Temp;Humidity;BMP_temperature;BMP_pressure;BME280_temperature;BME280_humidity;BME280_pressure;Samples;Min_cycle;Max_cycle;Signal;HPM_P1;HPM_P2
2023/01/02 00:02:17;;;;;;;7.67;2.90;;;;;;;;;;5028621;28;20484;-75
2023/01/02 00:04:43;;;;;;;2.67;2.57;;;;;;;;;;5031199;28;20435;-75
2023/01/02 00:07:09;;;;;;;3.07;2.60;;;;;;;;;;5036555;28;20823;-76
2023/01/02 00:09:35;;;;;;;2.73;2.53;;;;;;;;;;5014978;28;20537;-75
2023/01/02 00:12:01;;;;;;;5.73;3.23;;;;;;;;;;5032641;28;20435;-75
2023/01/02 00:14:27;;;;;;;2.87;2.77;;;;;;;;;;5025419;28;20501;-75
2023/01/02 00:16:53;;;;;;;6.40;3.30;;;;;;;;;;5042401;28;20430;-73
2023/01/02 00:19:19;;;;;;;3.23;2.63;;;;;;;;;;5025078;28;20568;-74
2023/01/02 00:21:44;;;;;;;3.80;3.10;;;;;;;;;;5040035;28;20561;-75
2023/01/02 00:24:10;;;;;;;5.83;1.93;;;;;;;;;;5038452;28;20929;-75
2023/01/02 00:26:36;;;;;;;8.00;3.73;;;;;;;;;;5034592;28;20933;-76
2023/01/02 00:29:02;;;;;;;3.50;2.80;;;;;;;;;;5022294;28;20431;-75
2023/01/02 00:31:29;;;;;;;3.63;3.30;;;;;;;;;;5012984;28;21041;-76
2023/01/02 00:33:55;;;;;;;6.23;3.13;;;;;;;;;;5029709;28;20417;-75
2023/01/02 00:36:21;;;;;;;15.50;3.47;;;;;;;;;;5036674;28;20445;-75
2023/01/02 00:38:47;;;;;;;7.40;2.60;;;;;;;;;;5029888;28;20441;-76
2023/01/02 00:41:13;;;;;;;4.40;3.17;;;;;;;;;;5027152;28;20447;-74
2023/01/02 00:43:39;;;;;;;3.70;3.50;;;;;;;;;;5028910;28;20503;-75
2023/01/02 00:46:05;;;;;;;3.17;2.90;;;;;;;;;;5031909;28;20544;-76
2023/01/02 00:48:31;;;;;;;4.10;2.67;;;;;;;;;;5031550;28;20484;-75
2023/01/02 00:50:57;;;;;;;3.70;3.30;;;;;;;;;;5020485;28;20434;-75
2023/01/02 00:53:23;;;;;;;2.90;2.77;;;;;;;;;;5033167;28;20535;-76
2023/01/02 00:55:49;;;;;;;4.73;2.77;;;;;;;;;;5044545;28;20636;-75
2023/01/02 00:58:15;;;;;;;4.50;2.87;;;;;;;;;;5022666;28;20433;-76
2023/01/02 01:00:41;;;;;;;4.33;2.80;;;;;;;;;;5045479;28;20438;-75
2023/01/02 01:03:07;;;;;;;4.83;2.97;;;;;;;;;;5026087;28;20430;-75
2023/01/02 01:05:33;;;;;;;3.63;3.23;;;;;;;;;;5006442;28;20898;-76
2023/01/02 01:07:59;;;;;;;3.73;3.33;;;;;;;;;;5045486;28;21073;-75
2023/01/02 01:10:26;;;;;;;4.60;2.50;;;;;;;;;;5018177;28;20956;-75
2023/01/02 01:12:52;;;;;;;6.73;3.53;;;;;;;;;;5024962;28;20434;-75
2023/01/02 01:15:18;;;;;;;12.63;3.73;;;;;;;;;;5040867;28;20453;-75
2023/01/02 01:17:44;;;;;;;5.63;3.57;;;;;;;;;;5026293;28;20457;-74
2023/01/02 01:20:10;;;;;;;3.33;3.13;;;;;;;;;;5034776;28;20925;-75
2023/01/02 01:22:36;;;;;;;5.20;3.60;;;;;;;;;;5045070;28;21021;-75
2023/01/02 01:25:02;;;;;;;3.30;3.20;;;;;;;;;;5026828;28;20446;-75
2023/01/02 01:27:28;;;;;;;4.67;3.50;;;;;;;;;;5026137;28;20442;-75
2023/01/02 01:29:54;;;;;;;4.17;3.87;;;;;;;;;;5027021;28;20855;-75
2023/01/02 01:32:20;;;;;;;3.87;3.47;;;;;;;;;;5033726;28;20436;-75
2023/01/02 01:34:46;;;;;;;10.67;4.17;;;;;;;;;;5027118;28;20477;-76
2023/01/02 01:37:12;;;;;;;3.67;3.37;;;;;;;;;;5028352;28;20804;-75
2023/01/02 01:39:38;;;;;;;4.50;4.10;;;;;;;;;;5034958;28;20433;-76
2023/01/02 01:42:04;;;;;;;8.57;3.83;;;;;;;;;;5022808;28;20514;-76
2023/01/02 01:44:41;;;;;;;3.03;2.83;;;;;;;;;;5007277;28;20765;-76
2023/01/02 01:47:20;;;;;;;6.60;3.50;;;;;;;;;;5018393;28;20521;-75
2023/01/02 01:49:46;;;;;;;6.33;3.97;;;;;;;;;;5011461;28;20517;-77
2023/01/02 01:52:14;;;;;;;4.50;3.83;;;;;;;;;;5023913;28;20484;-76
2023/01/02 01:54:44;;;;;;;8.07;3.73;;;;;;;;;;5014790;28;20466;-77
2023/01/02 01:57:30;;;;;;;4.30;3.70;;;;;;;;;;5024233;28;20525;-77
2023/01/02 01:59:57;;;;;;;3.70;3.30;;;;;;;;;;5028629;28;20534;-76
2023/01/02 02:02:23;;;;;;;5.47;4.47;;;;;;;;;;5024963;28;20439;-75
2023/01/02 02:04:49;;;;;;;4.40;2.93;;;;;;;;;;5031033;28;20504;-76
2023/01/02 02:07:15;;;;;;;4.40;4.07;;;;;;;;;;5031528;28;20434;-76
2023/01/02 02:09:44;;;;;;;4.20;3.80;;;;;;;;;;5008968;28;20466;-75
2023/01/02 02:12:11;;;;;;;5.27;4.00;;;;;;;;;;5043111;28;20431;-74
2023/01/02 02:14:37;;;;;;;3.93;3.07;;;;;;;;;;5033425;28;20470;-75
2023/01/02 02:17:03;;;;;;;7.17;3.53;;;;;;;;;;5022492;28;20449;-75
2023/01/02 02:19:48;;;;;;;3.17;2.90;;;;;;;;;;5038521;28;20448;-75
2023/01/02 02:22:25;;;;;;;3.33;3.13;;;;;;;;;;5021125;28;20450;-75
2023/01/02 02:25:07;;;;;;;4.30;3.40;;;;;;;;;;5030732;28;20447;-76
2023/01/02 02:27:43;;;;;;;8.33;2.90;;;;;;;;;;5019774;28;20435;-75
2023/01/02 02:30:19;;;;;;;5.00;3.40;;;;;;;;;;5037261;28;20537;-76
2023/01/02 02:32:51;;;;;;;9.30;3.57;;;;;;;;;;5031981;28;20843;-76
2023/01/02 02:35:17;;;;;;;4.73;3.20;;;;;;;;;;5030783;28;20466;-75
2023/01/02 02:37:55;;;;;;;3.10;2.90;;;;;;;;;;5038395;28;20441;-76
2023/01/02 02:40:21;;;;;;;7.03;3.40;;;;;;;;;;5036683;28;20448;-75
2023/01/02 02:42:57;;;;;;;4.17;3.77;;;;;;;;;;5037588;28;20422;-74
2023/01/02 02:45:28;;;;;;;6.93;3.07;;;;;;;;;;5035489;28;20456;-76
2023/01/02 02:47:57;;;;;;;3.73;3.10;;;;;;;;;;5026896;28;20455;-76
2023/01/02 02:50:31;;;;;;;4.53;3.03;;;;;;;;;;5029724;28;20492;-76
2023/01/02 02:53:00;;;;;;;3.80;3.50;;;;;;;;;;5024853;28;20423;-76
2023/01/02 02:55:29;;;;;;;4.33;3.73;;;;;;;;;;5028552;28;20976;-76
2023/01/02 02:57:56;;;;;;;3.60;2.60;;;;;;;;;;5039290;28;20449;-76
2023/01/02 03:00:22;;;;;;;3.20;3.00;;;;;;;;;;5013546;28;20977;-77
2023/01/02 03:02:48;;;;;;;3.93;3.20;;;;;;;;;;5037887;28;20513;-76
2023/01/02 03:05:35;;;;;;;6.93;3.50;;;;;;;;;;5044345;28;20448;-75
2023/01/02 03:08:01;;;;;;;5.27;4.70;;;;;;;;;;5015551;28;20423;-77
2023/01/02 03:10:30;;;;;;;6.00;3.80;;;;;;;;;;5023413;28;20778;-77
2023/01/02 03:13:15;;;;;;;4.00;3.33;;;;;;;;;;5018371;28;20507;-76
2023/01/02 03:15:46;;;;;;;5.13;3.47;;;;;;;;;;5042223;28;20849;-75
2023/01/02 03:18:44;;;;;;;4.73;3.40;;;;;;;;;;5024428;28;20474;-76
2023/01/02 03:21:11;;;;;;;6.83;3.83;;;;;;;;;;5006825;28;20984;-76
2023/01/02 03:23:45;;;;;;;3.93;3.60;;;;;;;;;;5030853;28;20477;-77
2023/01/02 03:26:12;;;;;;;5.30;3.70;;;;;;;;;;5031012;28;20414;-76
2023/01/02 03:28:40;;;;;;;3.53;3.23;;;;;;;;;;5023098;28;20471;-76
2023/01/02 03:31:08;;;;;;;3.47;3.17;;;;;;;;;;5019523;28;20414;-76
2023/01/02 03:33:39;;;;;;;4.63;3.70;;;;;;;;;;5025861;28;20959;-76
2023/01/02 03:36:11;;;;;;;5.57;4.03;;;;;;;;;;5018595;28;20497;-76
2023/01/02 03:38:43;;;;;;;3.83;3.53;;;;;;;;;;5024121;28;20457;-76
2023/01/02 03:41:30;;;;;;;4.67;4.27;;;;;;;;;;5014719;28;20772;-76
2023/01/02 03:43:57;;;;;;;4.23;3.93;;;;;;;;;;5013861;28;20525;-76
2023/01/02 03:46:26;;;;;;;5.83;4.67;;;;;;;;;;5017056;28;20411;-76
2023/01/02 03:48:59;;;;;;;4.70;3.40;;;;;;;;;;5034387;28;20521;-76
2023/01/02 03:51:25;;;;;;;3.63;3.33;;;;;;;;;;5023937;28;20408;-76
2023/01/02 03:53:51;;;;;;;7.53;4.27;;;;;;;;;;5039373;28;20461;-75
2023/01/02 03:56:44;;;;;;;5.60;4.30;;;;;;;;;;5018883;28;20462;-76
2023/01/02 03:59:19;;;;;;;3.50;3.30;;;;;;;;;;4984522;28;20454;-76
2023/01/02 04:01:51;;;;;;;3.80;3.17;;;;;;;;;;5022234;28;20505;-77
2023/01/02 04:04:24;;;;;;;6.13;3.93;;;;;;;;;;5021891;28;20501;-75
2023/01/02 04:06:54;;;;;;;5.67;4.50;;;;;;;;;;5024184;28;20425;-76
2023/01/02 04:09:22;;;;;;;6.83;4.20;;;;;;;;;;5021105;28;21004;-77
2023/01/02 04:11:50;;;;;;;6.00;3.77;;;;;;;;;;5037399;28;20446;-76
2023/01/02 04:14:18;;;;;;;5.10;4.00;;;;;;;;;;5021087;28;20435;-76
2023/01/02 04:16:45;;;;;;;4.60;3.80;;;;;;;;;;5012783;28;20428;-77
2023/01/02 04:19:13;;;;;;;4.00;3.27;;;;;;;;;;5032016;28;21120;-77
2023/01/02 04:21:40;;;;;;;7.03;3.77;;;;;;;;;;5010619;28;20537;-76
2023/01/02 04:24:14;;;;;;;3.23;3.03;;;;;;;;;;5022779;28;20430;-76
2023/01/02 04:26:56;;;;;;;3.40;3.20;;;;;;;;;;5017900;28;20423;-76
2023/01/02 04:29:22;;;;;;;4.23;3.93;;;;;;;;;;5013219;28;20453;-76
2023/01/02 04:32:10;;;;;;;4.33;3.70;;;;;;;;;;5009237;28;20862;-76
2023/01/02 04:34:38;;;;;;;4.10;3.50;;;;;;;;;;5018387;28;20555;-76
2023/01/02 04:37:04;;;;;;;12.70;4.43;;;;;;;;;;5036261;28;20434;-76
2023/01/02 04:39:30;;;;;;;3.73;3.40;;;;;;;;;;5034833;28;21002;-76
2023/01/02 04:41:56;;;;;;;3.53;3.30;;;;;;;;;;5039446;28;20435;-76
2023/01/02 04:44:22;;;;;;;4.93;4.07;;;;;;;;;;5025113;28;20685;-76
2023/01/02 04:46:48;;;;;;;3.73;3.37;;;;;;;;;;5033376;28;20435;-77
2023/01/02 04:49:14;;;;;;;4.83;3.90;;;;;;;;;;5020463;28;20802;-76
2023/01/02 04:51:40;;;;;;;4.10;3.70;;;;;;;;;;5025296;28;20443;-75
2023/01/02 04:54:06;;;;;;;5.80;3.27;;;;;;;;;;5034902;28;21169;-75
2023/01/02 04:56:32;;;;;;;4.57;3.70;;;;;;;;;;5044865;28;20446;-77
2023/01/02 04:58:58;;;;;;;4.17;3.87;;;;;;;;;;5023712;28;20509;-75
2023/01/02 05:01:24;;;;;;;5.87;3.33;;;;;;;;;;5025798;28;20422;-75
2023/01/02 05:03:53;;;;;;;7.83;2.57;;;;;;;;;;5018297;28;20431;-76
2023/01/02 05:06:19;;;;;;;2.67;2.60;;;;;;;;;;5025000;28;20410;-76
2023/01/02 05:08:45;;;;;;;4.00;2.53;;;;;;;;;;5011570;28;20447;-76
2023/01/02 05:11:13;;;;;;;3.23;3.03;;;;;;;;;;5014668;28;20438;-75
2023/01/02 05:13:39;;;;;;;3.47;3.13;;;;;;;;;;5028276;28;20455;-75
2023/01/02 05:16:05;;;;;;;2.70;2.60;;;;;;;;;;5035029;28;20497;-76
2023/01/02 05:18:31;;;;;;;4.00;3.80;;;;;;;;;;5031891;28;20430;-76
2023/01/02 05:21:01;;;;;;;4.43;3.30;;;;;;;;;;5036171;28;20402;-76
2023/01/02 05:26:12;;;;;;;4.67;4.20;;;;;;;;;;5011782;28;20557;-74
2023/01/02 05:28:38;;;;;;;7.50;2.90;;;;;;;;;;5017267;28;20431;-77
2023/01/02 05:31:04;;;;;;;2.90;2.63;;;;;;;;;;5023386;28;20425;-76
2023/01/02 05:33:30;;;;;;;3.33;3.03;;;;;;;;;;5013675;28;20445;-76
2023/01/02 05:35:59;;;;;;;4.57;2.90;;;;;;;;;;5014166;28;20466;-75
2023/01/02 05:38:25;;;;;;;3.63;2.70;;;;;;;;;;5024883;28;20445;-75
2023/01/02 05:40:59;;;;;;;8.97;3.30;;;;;;;;;;5006809;28;20431;-75
2023/01/02 05:43:25;;;;;;;3.17;2.93;;;;;;;;;;5010871;28;20554;-75
2023/01/02 05:45:51;;;;;;;4.97;3.03;;;;;;;;;;5021947;28;20535;-77
2023/01/02 05:48:17;;;;;;;3.70;3.40;;;;;;;;;;5032749;28;20933;-77
2023/01/02 05:50:43;;;;;;;2.83;2.60;;;;;;;;;;5030172;28;20411;-76
2023/01/02 05:53:08;;;;;;;2.90;2.70;;;;;;;;;;5020655;28;20548;-75
2023/01/02 05:55:35;;;;;;;2.13;1.90;;;;;;;;;;5013201;28;20475;-76
2023/01/02 05:58:01;;;;;;;3.03;2.60;;;;;;;;;;5020128;28;20509;-75
2023/01/02 06:00:27;;;;;;;4.50;3.43;;;;;;;;;;5022646;28;20434;-75
2023/01/02 06:02:53;;;;;;;4.60;3.20;;;;;;;;;;5022713;28;20808;-75
2023/01/02 06:05:19;;;;;;;4.53;1.90;;;;;;;;;;5021104;28;20480;-76
2023/01/02 06:07:45;;;;;;;3.57;2.87;;;;;;;;;;5030715;28;20826;-76
2023/01/02 06:10:11;;;;;;;6.17;2.97;;;;;;;;;;5006245;28;20790;-75
2023/01/02 06:12:37;;;;;;;4.40;2.90;;;;;;;;;;5019528;28;20439;-77
2023/01/02 06:15:03;;;;;;;7.33;2.90;;;;;;;;;;5031972;28;20466;-76
2023/01/02 06:17:29;;;;;;;3.03;2.83;;;;;;;;;;5026353;28;20431;-75
2023/01/02 06:19:55;;;;;;;2.80;2.60;;;;;;;;;;5010292;28;20878;-76
2023/01/02 06:22:21;;;;;;;3.37;3.07;;;;;;;;;;5023654;28;20474;-76
2023/01/02 06:24:47;;;;;;;4.83;3.07;;;;;;;;;;5024209;28;20474;-75
2023/01/02 06:27:13;;;;;;;3.40;3.20;;;;;;;;;;5032771;28;20461;-75
2023/01/02 06:29:39;;;;;;;3.33;2.90;;;;;;;;;;5025757;28;20446;-77
2023/01/02 06:32:05;;;;;;;2.73;2.53;;;;;;;;;;5016971;28;20432;-76
2023/01/02 06:34:31;;;;;;;4.93;2.97;;;;;;;;;;5019169;28;20518;-75
2023/01/02 06:36:57;;;;;;;3.30;3.00;;;;;;;;;;5030671;28;20433;-76
2023/01/02 06:39:23;;;;;;;7.53;2.33;;;;;;;;;;5039797;28;20438;-75
2023/01/02 06:41:49;;;;;;;5.13;2.70;;;;;;;;;;5024028;28;20426;-76
2023/01/02 06:44:15;;;;;;;5.50;2.63;;;;;;;;;;5038839;28;20859;-76
2023/01/02 06:46:41;;;;;;;1.90;1.90;;;;;;;;;;5022802;28;20445;-76
2023/01/02 06:49:07;;;;;;;5.90;3.10;;;;;;;;;;5029528;28;20439;-76
2023/01/02 06:51:33;;;;;;;2.60;2.50;;;;;;;;;;5024937;28;20438;-76
2023/01/02 06:53:59;;;;;;;2.30;2.10;;;;;;;;;;5028922;28;20871;-75
2023/01/02 06:56:25;;;;;;;2.67;2.53;;;;;;;;;;5025344;28;20499;-76
2023/01/02 06:58:51;;;;;;;3.83;2.70;;;;;;;;;;5040280;28;20507;-74
2023/01/02 07:01:18;;;;;;;4.03;3.60;;;;;;;;;;5027982;28;20418;-75
2023/01/02 07:03:44;;;;;;;2.13;2.03;;;;;;;;;;5031389;28;20468;-76
2023/01/02 07:06:12;;;;;;;1.90;1.90;;;;;;;;;;5018044;28;20764;-75
2023/01/02 07:08:38;;;;;;;2.23;2.23;;;;;;;;;;5028747;28;20457;-75
2023/01/02 07:11:11;;;;;;;4.50;1.90;;;;;;;;;;5035823;28;20435;-76
2023/01/02 07:13:38;;;;;;;3.00;2.50;;;;;;;;;;5035080;28;20454;-75
2023/01/02 07:16:05;;;;;;;2.00;1.90;;;;;;;;;;5026423;28;20458;-75
2023/01/02 07:18:31;;;;;;;2.93;2.77;;;;;;;;;;5036347;28;20532;-75
2023/01/02 07:20:57;;;;;;;4.50;1.93;;;;;;;;;;5034667;28;20419;-75
2023/01/02 07:23:23;;;;;;;4.00;2.60;;;;;;;;;;5036042;28;20466;-75
2023/01/02 07:25:53;;;;;;;3.60;3.40;;;;;;;;;;5026188;28;20484;-76
2023/01/02 07:28:19;;;;;;;1.80;1.80;;;;;;;;;;5027280;28;20470;-76
2023/01/02 07:30:45;;;;;;;2.63;2.53;;;;;;;;;;5019538;28;20418;-75
2023/01/02 07:33:11;;;;;;;2.20;2.10;;;;;;;;;;5028897;28;20444;-75
2023/01/02 07:35:37;;;;;;;2.07;2.07;;;;;;;;;;5031649;28;20515;-76
2023/01/02 07:38:03;;;;;;;2.60;2.47;;;;;;;;;;5030495;28;20427;-74
2023/01/02 07:40:29;;;;;;;2.60;2.50;;;;;;;;;;5024343;28;20410;-75
2023/01/02 07:42:55;;;;;;;3.00;2.90;;;;;;;;;;5027974;28;20792;-74
2023/01/02 07:45:21;;;;;;;4.20;3.17;;;;;;;;;;5019238;28;20430;-75
2023/01/02 07:47:47;;;;;;;2.40;2.20;;;;;;;;;;5020779;28;20442;-75
2023/01/02 07:50:13;;;;;;;3.97;2.10;;;;;;;;;;5016980;28;20522;-74
2023/01/02 07:52:39;;;;;;;6.37;2.30;;;;;;;;;;5014976;28;20431;-76
2023/01/02 07:55:05;;;;;;;3.00;2.77;;;;;;;;;;5014696;28;20502;-75
2023/01/02 07:57:31;;;;;;;3.03;2.60;;;;;;;;;;5010469;28;20554;-75
2023/01/02 07:59:57;;;;;;;3.93;2.40;;;;;;;;;;5006748;28;20545;-75
2023/01/02 08:02:23;;;;;;;3.37;2.53;;;;;;;;;;5025502;28;20780;-75
2023/01/02 08:04:49;;;;;;;2.87;2.67;;;;;;;;;;5023311;28;20442;-74
2023/01/02 08:07:15;;;;;;;2.70;2.50;;;;;;;;;;5027542;28;20500;-75
2023/01/02 08:09:41;;;;;;;2.40;2.07;;;;;;;;;;5023139;28;20502;-76
2023/01/02 08:12:07;;;;;;;3.60;2.60;;;;;;;;;;5023398;28;20431;-75
2023/01/02 08:14:33;;;;;;;4.20;2.63;;;;;;;;;;5024303;28;21025;-74
2023/01/02 08:16:59;;;;;;;2.73;2.53;;;;;;;;;;5025428;28;20466;-76
2023/01/02 08:19:25;;;;;;;7.30;3.30;;;;;;;;;;5025709;28;20446;-76
2023/01/02 08:21:51;;;;;;;3.33;2.37;;;;;;;;;;5027412;28;20442;-75
2023/01/02 08:24:17;;;;;;;3.37;2.53;;;;;;;;;;5024750;28;20724;-76
2023/01/02 08:26:43;;;;;;;2.30;2.20;;;;;;;;;;5009774;28;20480;-76
2023/01/02 08:29:09;;;;;;;2.83;2.73;;;;;;;;;;5026024;28;20496;-76
2023/01/02 08:31:36;;;;;;;6.23;2.70;;;;;;;;;;5032723;28;20439;-76
2023/01/02 08:34:02;;;;;;;2.97;2.77;;;;;;;;;;5032487;28;20530;-77
2023/01/02 08:36:28;;;;;;;2.93;2.53;;;;;;;;;;5023790;28;20990;-77
2023/01/02 08:38:54;;;;;;;3.17;2.73;;;;;;;;;;5029275;28;20521;-76
2023/01/02 08:41:39;;;;;;;4.43;2.40;;;;;;;;;;5028582;28;20876;-77
2023/01/02 08:44:05;;;;;;;3.10;2.53;;;;;;;;;;5021664;28;20766;-76
2023/01/02 08:46:32;;;;;;;3.70;2.70;;;;;;;;;;5007981;28;20440;-77
2023/01/02 08:48:58;;;;;;;2.40;1.90;;;;;;;;;;5032237;28;20422;-76
2023/01/02 08:51:25;;;;;;;2.50;2.40;;;;;;;;;;5021637;28;20441;-76
2023/01/02 08:53:51;;;;;;;3.43;3.13;;;;;;;;;;5031645;28;20603;-76
2023/01/02 08:56:28;;;;;;;3.70;2.70;;;;;;;;;;5020395;28;20541;-75
2023/01/02 08:59:04;;;;;;;3.53;2.47;;;;;;;;;;5020174;28;20411;-77
2023/01/02 09:01:30;;;;;;;4.70;2.43;;;;;;;;;;5021804;28;20414;-77
2023/01/02 09:03:57;;;;;;;3.53;2.23;;;;;;;;;;5014451;28;20435;-76
2023/01/02 09:06:24;;;;;;;2.77;2.10;;;;;;;;;;5031921;28;20992;-76
2023/01/02 09:08:51;;;;;;;1.70;1.70;;;;;;;;;;5017302;28;20542;-77
2023/01/02 09:11:19;;;;;;;1.93;1.57;;;;;;;;;;5027266;28;21019;-77
2023/01/02 09:13:45;;;;;;;2.10;2.10;;;;;;;;;;5023822;28;20415;-78
2023/01/02 09:16:11;;;;;;;3.17;2.53;;;;;;;;;;5022728;28;20524;-77
2023/01/02 09:18:38;;;;;;;2.47;2.37;;;;;;;;;;5016074;28;20455;-77
2023/01/02 09:21:04;;;;;;;2.83;2.40;;;;;;;;;;5021925;28;20785;-77
2023/01/02 09:23:31;;;;;;;2.23;2.20;;;;;;;;;;5016162;28;20520;-76
2023/01/02 09:25:58;;;;;;;2.80;2.73;;;;;;;;;;5013598;28;20492;-76
2023/01/02 09:28:33;;;;;;;2.47;2.47;;;;;;;;;;5025885;28;20533;-78
2023/01/02 09:30:59;;;;;;;2.27;2.17;;;;;;;;;;5023306;28;20446;-76
2023/01/02 09:33:25;;;;;;;3.27;3.00;;;;;;;;;;5023582;28;20516;-76
2023/01/02 09:35:51;;;;;;;2.30;1.63;;;;;;;;;;5026308;28;20496;-76
2023/01/02 09:38:17;;;;;;;1.70;1.70;;;;;;;;;;5021593;28;20437;-77
2023/01/02 09:40:51;;;;;;;1.80;1.60;;;;;;;;;;5025892;28;20922;-77
2023/01/02 09:43:25;;;;;;;2.13;2.13;;;;;;;;;;5028567;28;20944;-76
2023/01/02 09:45:52;;;;;;;1.80;1.70;;;;;;;;;;5022575;28;20434;-77
2023/01/02 09:48:19;;;;;;;2.83;2.63;;;;;;;;;;5024700;28;20965;-76
2023/01/02 09:50:46;;;;;;;3.83;3.27;;;;;;;;;;5022478;28;20712;-76
2023/01/02 09:53:13;;;;;;;2.17;2.07;;;;;;;;;;5022843;28;20528;-75
2023/01/02 09:55:54;;;;;;;2.57;2.57;;;;;;;;;;5020458;28;20460;-77
2023/01/02 09:58:20;;;;;;;2.30;2.30;;;;;;;;;;5025170;28;20455;-76
2023/01/02 10:00:48;;;;;;;2.40;2.13;;;;;;;;;;5019381;28;20445;-76
2023/01/02 10:03:31;;;;;;;2.53;2.43;;;;;;;;;;5026152;28;20955;-76
2023/01/02 10:06:04;;;;;;;3.83;3.60;;;;;;;;;;5020573;28;20469;-77
2023/01/02 10:08:32;;;;;;;3.47;3.23;;;;;;;;;;5021496;28;20892;-77
2023/01/02 10:11:10;;;;;;;3.87;3.77;;;;;;;;;;5019080;28;20431;-76
2023/01/02 10:13:44;;;;;;;3.00;2.90;;;;;;;;;;5027077;28;20434;-75
2023/01/02 10:16:14;;;;;;;4.20;3.90;;;;;;;;;;5025774;28;20496;-76
2023/01/02 10:18:43;;;;;;;5.07;4.73;;;;;;;;;;5025933;28;20787;-75
2023/01/02 10:21:13;;;;;;;5.23;5.03;;;;;;;;;;5021685;28;20427;-75
2023/01/02 10:23:41;;;;;;;3.57;3.47;;;;;;;;;;5022070;28;21010;-76
2023/01/02 10:26:13;;;;;;;4.90;4.60;;;;;;;;;;5024740;28;20431;-76
2023/01/02 10:29:02;;;;;;;5.07;4.57;;;;;;;;;;5022777;28;20448;-77
2023/01/02 10:31:30;;;;;;;4.63;4.33;;;;;;;;;;5023515;28;20915;-76
2023/01/02 10:33:58;;;;;;;5.23;5.03;;;;;;;;;;5027923;28;20430;-76
2023/01/02 10:36:29;;;;;;;6.33;6.00;;;;;;;;;;5017944;28;21013;-78
2023/01/02 10:39:00;;;;;;;5.43;5.10;;;;;;;;;;5023437;28;20961;-76
2023/01/02 10:41:27;;;;;;;4.70;4.50;;;;;;;;;;5034803;28;20426;-76
2023/01/02 10:43:56;;;;;;;4.40;4.20;;;;;;;;;;5026739;28;20470;-77
2023/01/02 10:46:23;;;;;;;4.23;4.00;;;;;;;;;;5016922;28;20475;-77
2023/01/02 10:48:49;;;;;;;4.80;4.60;;;;;;;;;;5027999;28;20531;-77
2023/01/02 10:51:15;;;;;;;4.73;4.33;;;;;;;;;;5025894;28;20699;-76
2023/01/02 10:53:42;;;;;;;5.23;5.00;;;;;;;;;;5034242;28;20552;-77
2023/01/02 10:56:18;;;;;;;5.17;4.93;;;;;;;;;;5038074;28;20530;-77
2023/01/02 10:58:46;;;;;;;5.40;5.10;;;;;;;;;;5038003;28;20518;-77
2023/01/02 11:01:17;;;;;;;6.87;6.43;;;;;;;;;;5024065;28;20521;-76
2023/01/02 11:03:43;;;;;;;4.90;4.60;;;;;;;;;;5026947;28;20453;-75
2023/01/02 11:06:38;;;;;;;5.70;5.30;;;;;;;;;;5029656;28;20433;-76
2023/01/02 11:09:17;;;;;;;5.20;5.00;;;;;;;;;;5002987;28;20454;-75
2023/01/02 11:11:50;;;;;;;6.47;6.00;;;;;;;;;;5025379;28;20637;-76
2023/01/02 11:14:20;;;;;;;6.10;5.70;;;;;;;;;;5031094;28;20426;-77
2023/01/02 11:16:46;;;;;;;6.60;6.20;;;;;;;;;;5033654;28;20675;-76
2023/01/02 11:19:18;;;;;;;5.53;5.23;;;;;;;;;;5032874;28;20845;-76
2023/01/02 11:21:45;;;;;;;7.03;6.50;;;;;;;;;;5022595;28;20930;-77
2023/01/02 11:24:15;;;;;;;7.47;7.07;;;;;;;;;;5029733;28;20450;-78
2023/01/02 11:26:43;;;;;;;8.20;7.60;;;;;;;;;;5028796;28;20462;-77
2023/01/02 11:29:12;;;;;;;7.63;7.03;;;;;;;;;;5036412;28;20438;-78
2023/01/02 11:31:43;;;;;;;7.57;6.97;;;;;;;;;;5021135;28;20408;-77
2023/01/02 11:34:09;;;;;;;8.63;8.03;;;;;;;;;;5029908;28;20803;-78
2023/01/02 11:36:36;;;;;;;8.17;7.60;;;;;;;;;;5015511;28;20479;-76
2023/01/02 11:39:20;;;;;;;8.03;7.43;;;;;;;;;;5029199;28;20487;-77
2023/01/02 11:44:42;;;;;;;7.80;7.10;;;;;;;;;;5028559;28;20434;-77
2023/01/02 11:47:10;;;;;;;7.20;6.70;;;;;;;;;;5021935;28;20451;-76
2023/01/02 11:49:39;;;;;;;7.37;6.73;;;;;;;;;;5030104;28;20494;-77
2023/01/02 11:52:06;;;;;;;6.23;5.80;;;;;;;;;;5029045;28;20435;-76
2023/01/02 11:54:40;;;;;;;7.40;6.70;;;;;;;;;;5025518;28;20535;-77
2023/01/02 11:57:11;;;;;;;4.90;4.60;;;;;;;;;;5026946;28;20549;-75
2023/01/02 11:59:39;;;;;;;5.67;5.37;;;;;;;;;;5026819;28;20517;-78
2023/01/02 12:02:12;;;;;;;5.57;5.33;;;;;;;;;;5017996;28;20438;-78
2023/01/02 12:04:38;;;;;;;6.03;5.50;;;;;;;;;;5025033;28;20435;-77
2023/01/02 12:07:22;;;;;;;6.17;5.87;;;;;;;;;;5020226;28;21015;-77
2023/01/02 12:09:48;;;;;;;4.83;4.63;;;;;;;;;;5000419;28;20496;-76
2023/01/02 12:12:17;;;;;;;5.83;5.37;;;;;;;;;;5020900;28;20947;-76
2023/01/02 12:14:43;;;;;;;5.20;5.00;;;;;;;;;;5020685;28;20481;-79
2023/01/02 12:17:09;;;;;;;4.80;4.50;;;;;;;;;;5033206;28;20430;-76
2023/01/02 12:19:42;;;;;;;4.90;4.60;;;;;;;;;;5018473;28;20446;-77
2023/01/02 12:22:18;;;;;;;9.50;5.80;;;;;;;;;;5020908;28;20474;-76
2023/01/02 12:24:44;;;;;;;4.43;4.23;;;;;;;;;;5030338;28;20814;-77
2023/01/02 12:27:13;;;;;;;4.73;4.33;;;;;;;;;;5021476;28;20444;-76
2023/01/02 12:29:54;;;;;;;4.30;4.10;;;;;;;;;;5027534;28;20434;-75
2023/01/02 12:32:32;;;;;;;5.30;4.80;;;;;;;;;;5019585;28;20427;-75
2023/01/02 12:35:04;;;;;;;4.60;4.30;;;;;;;;;;5021896;28;20474;-75
2023/01/02 12:37:49;;;;;;;5.00;4.60;;;;;;;;;;5020844;28;20427;-76
2023/01/02 12:40:24;;;;;;;4.70;4.40;;;;;;;;;;5025950;28;20435;-76
2023/01/02 12:43:02;;;;;;;5.10;4.70;;;;;;;;;;5022950;28;20922;-76
2023/01/02 12:45:42;;;;;;;4.90;4.60;;;;;;;;;;5011788;28;20813;-76
2023/01/02 12:48:19;;;;;;;4.37;4.20;;;;;;;;;;5011952;28;20449;-77
2023/01/02 12:50:45;;;;;;;5.30;4.90;;;;;;;;;;5022726;28;20415;-77
2023/01/02 12:53:13;;;;;;;5.50;5.13;;;;;;;;;;5023211;28;20553;-77
2023/01/02 12:55:52;;;;;;;4.40;4.17;;;;;;;;;;5012918;28;20475;-77
2023/01/02 12:58:20;;;;;;;4.60;4.40;;;;;;;;;;5018481;28;20429;-76
2023/01/02 13:00:58;;;;;;;5.23;4.87;;;;;;;;;;5022007;28;20950;-76
2023/01/02 13:03:27;;;;;;;4.80;4.53;;;;;;;;;;5025254;28;20433;-75
2023/01/02 13:05:55;;;;;;;4.87;4.57;;;;;;;;;;5021912;28;20427;-76
2023/01/02 13:08:21;;;;;;;6.70;5.40;;;;;;;;;;5022462;28;20972;-75
2023/01/02 13:10:47;;;;;;;5.33;4.70;;;;;;;;;;5009305;28;21031;-76
2023/01/02 13:13:14;;;;;;;5.50;5.20;;;;;;;;;;5027418;28;20776;-76
2023/01/02 13:15:42;;;;;;;5.23;4.83;;;;;;;;;;5020896;28;20476;-75
2023/01/02 13:18:08;;;;;;;5.20;4.90;;;;;;;;;;5033537;28;20441;-75
2023/01/02 13:20:47;;;;;;;5.03;4.70;;;;;;;;;;5016820;28;20446;-75
2023/01/02 13:23:28;;;;;;;5.40;5.10;;;;;;;;;;5023843;28;20472;-75
2023/01/02 13:26:06;;;;;;;4.67;4.27;;;;;;;;;;5017468;28;20515;-77
2023/01/02 13:28:32;;;;;;;6.13;5.63;;;;;;;;;;5019004;28;20749;-75
2023/01/02 13:31:04;;;;;;;5.70;5.20;;;;;;;;;;5026471;28;20430;-77
2023/01/02 13:33:37;;;;;;;5.40;4.97;;;;;;;;;;5022663;28;20439;-75
2023/01/02 13:36:20;;;;;;;5.70;5.20;;;;;;;;;;5021751;28;20459;-75
2023/01/02 13:38:48;;;;;;;5.60;5.10;;;;;;;;;;5025550;28;20438;-75
2023/01/02 13:41:16;;;;;;;5.43;5.03;;;;;;;;;;5026616;28;20805;-76
2023/01/02 13:43:46;;;;;;;5.43;4.93;;;;;;;;;;5029454;28;20513;-75
2023/01/02 13:46:13;;;;;;;6.30;5.70;;;;;;;;;;5021945;28;20439;-76
2023/01/02 13:48:42;;;;;;;5.50;5.10;;;;;;;;;;5019128;28;20442;-77
2023/01/02 13:51:22;;;;;;;6.13;5.50;;;;;;;;;;5021538;28;20402;-76
2023/01/02 13:53:49;;;;;;;7.33;6.67;;;;;;;;;;5021591;28;20580;-75
2023/01/02 13:56:19;;;;;;;6.17;5.63;;;;;;;;;;5016004;28;20557;-74
2023/01/02 13:58:45;;;;;;;6.70;6.10;;;;;;;;;;5014472;28;21161;-76
2023/01/02 14:01:20;;;;;;;6.40;5.87;;;;;;;;;;5014198;28;20426;-76
2023/01/02 14:03:50;;;;;;;9.07;5.47;;;;;;;;;;5029259;28;20841;-76
2023/01/02 14:06:30;;;;;;;5.43;4.90;;;;;;;;;;5013136;28;20399;-75
2023/01/02 14:09:05;;;;;;;9.47;7.97;;;;;;;;;;5032187;28;20425;-76
2023/01/02 14:11:34;;;;;;;6.17;5.57;;;;;;;;;;5027957;28;20410;-76
2023/01/02 14:14:00;;;;;;;6.50;6.00;;;;;;;;;;5029886;28;20433;-76
2023/01/02 14:16:35;;;;;;;6.17;5.67;;;;;;;;;;5026578;28;20473;-76
2023/01/02 14:19:04;;;;;;;6.03;5.53;;;;;;;;;;5020558;28;20737;-75
2023/01/02 14:21:38;;;;;;;6.30;5.80;;;;;;;;;;5023176;28;20428;-75
2023/01/02 14:24:05;;;;;;;7.80;6.47;;;;;;;;;;5036092;28;20433;-76
2023/01/02 14:26:35;;;;;;;7.23;6.57;;;;;;;;;;5016644;28;21149;-76
2023/01/02 14:29:12;;;;;;;6.20;5.70;;;;;;;;;;5026238;28;20880;-76
2023/01/02 14:31:38;;;;;;;6.20;5.70;;;;;;;;;;5019497;28;20864;-78
2023/01/02 14:34:04;;;;;;;10.80;6.20;;;;;;;;;;5031931;28;20434;-74
2023/01/02 14:36:35;;;;;;;8.20;6.57;;;;;;;;;;5036405;28;20462;-77
2023/01/02 14:39:22;;;;;;;7.77;6.30;;;;;;;;;;5028748;28;20521;-78
2023/01/02 14:44:41;;;;;;;7.60;6.80;;;;;;;;;;5024547;28;20410;-76
2023/01/02 14:47:32;;;;;;;7.47;5.30;;;;;;;;;;5031306;28;20454;-75
2023/01/02 14:49:59;;;;;;;8.50;7.70;;;;;;;;;;5026863;28;20417;-75
2023/01/02 14:52:28;;;;;;;6.57;6.03;;;;;;;;;;5027587;28;20434;-76
2023/01/02 14:54:56;;;;;;;6.57;5.83;;;;;;;;;;5023201;28;20567;-75
2023/01/02 14:57:31;;;;;;;7.40;6.67;;;;;;;;;;5008993;28;20443;-75
2023/01/02 14:59:59;;;;;;;6.37;5.77;;;;;;;;;;5023709;28;20468;-75
2023/01/02 15:02:36;;;;;;;6.53;6.03;;;;;;;;;;5009905;28;20976;-75
2023/01/02 15:05:14;;;;;;;9.13;6.70;;;;;;;;;;5004457;28;20415;-76